createdAt,value
2023-04-15T00:01:27.093Z,2.80
2023-04-15T00:03:55.267Z,2.50
2023-04-15T00:06:22.770Z,2.30
2023-04-15T00:08:50.798Z,2.30
2023-04-15T00:11:18.293Z,2.20
2023-04-15T00:13:45.817Z,2.40
2023-04-15T00:16:12.507Z,2.30
2023-04-15T00:18:39.198Z,2.00
2023-04-15T00:21:05.947Z,2.40
2023-04-15T00:23:32.604Z,2.40
2023-04-15T00:25:59.246Z,2.10
2023-04-15T00:28:26.366Z,2.00
2023-04-15T00:30:53.118Z,1.70
2023-04-15T00:33:20.070Z,1.70
2023-04-15T00:35:47.106Z,1.80
2023-04-15T00:38:13.710Z,2.00
2023-04-15T00:40:42.041Z,1.90
2023-04-15T00:43:08.662Z,2.00
2023-04-15T00:48:02.290Z,1.70
2023-04-15T00:50:28.922Z,1.70
2023-04-15T00:52:56.164Z,1.60
2023-04-15T00:55:22.880Z,1.60
2023-04-15T00:57:50.759Z,1.80
2023-04-15T01:00:18.296Z,1.80
2023-04-15T01:02:46.219Z,1.70
2023-04-15T01:05:13.177Z,1.50
2023-04-15T01:07:40.104Z,1.80
2023-04-15T01:10:08.303Z,1.70
2023-04-15T01:12:36.071Z,2.20
2023-04-15T01:15:02.791Z,1.80
2023-04-15T01:17:30.187Z,1.70
2023-04-15T01:20:00.017Z,1.60
2023-04-15T01:22:27.835Z,1.90
2023-04-15T01:25:06.210Z,1.70
2023-04-15T01:27:35.480Z,1.70
2023-04-15T01:30:05.422Z,1.70
2023-04-15T01:32:32.827Z,1.50
2023-04-15T01:34:59.804Z,1.80
2023-04-15T01:37:26.522Z,1.50
2023-04-15T01:39:53.182Z,1.60
2023-04-15T01:44:49.041Z,1.20
2023-04-15T01:49:42.161Z,1.30
2023-04-15T01:52:09.332Z,1.40
2023-04-15T01:54:36.193Z,1.40
2023-04-15T01:57:03.729Z,1.40
2023-04-15T01:59:32.027Z,1.70
2023-04-15T02:01:59.237Z,1.50
2023-04-15T02:04:28.139Z,1.50
2023-04-15T02:06:54.820Z,1.40
2023-04-15T02:09:21.741Z,1.30
2023-04-15T02:14:14.964Z,1.40
2023-04-15T02:16:41.663Z,1.60
2023-04-15T02:19:08.976Z,1.70
2023-04-15T02:21:37.563Z,1.50
2023-04-15T02:24:04.515Z,1.60
2023-04-15T02:26:33.229Z,1.50
2023-04-15T02:29:00.408Z,1.40
2023-04-15T02:31:27.389Z,1.60
2023-04-15T02:33:54.040Z,1.50
2023-04-15T02:38:48.027Z,1.50
2023-04-15T02:41:15.422Z,1.70
2023-04-15T02:43:42.465Z,1.40
2023-04-15T02:46:12.937Z,1.60
2023-04-15T02:48:39.747Z,1.30
2023-04-15T02:51:21.245Z,1.50
2023-04-15T02:53:49.023Z,1.70
2023-04-15T02:56:17.314Z,1.60
2023-04-15T02:58:45.802Z,1.30
2023-04-15T03:01:12.968Z,1.40
2023-04-15T03:03:40.597Z,1.40
2023-04-15T03:06:09.147Z,1.70
2023-04-15T03:08:36.600Z,1.50
2023-04-15T03:11:04.549Z,1.70
2023-04-15T03:13:31.634Z,1.40
2023-04-15T03:15:59.009Z,1.50
2023-04-15T03:18:27.128Z,1.20
2023-04-15T03:20:53.832Z,1.40
2023-04-15T03:23:20.934Z,1.50
2023-04-15T03:25:48.697Z,1.40
2023-04-15T03:28:15.380Z,1.60
2023-04-15T03:30:42.479Z,1.70
2023-04-15T03:33:09.382Z,1.80
2023-04-15T03:35:36.803Z,1.50
2023-04-15T03:38:03.569Z,1.50
2023-04-15T03:40:30.559Z,1.60
2023-04-15T03:42:57.127Z,1.70
2023-04-15T03:45:23.894Z,1.40
2023-04-15T03:50:17.436Z,1.30
2023-04-15T03:52:45.725Z,1.60
2023-04-15T03:55:12.399Z,1.60
2023-04-15T04:00:08.120Z,1.30
2023-04-15T04:02:39.193Z,1.70
2023-04-15T04:05:06.317Z,1.50
2023-04-15T04:07:33.050Z,1.60
2023-04-15T04:09:59.669Z,1.70
2023-04-15T04:14:52.811Z,1.50
2023-04-15T04:19:46.536Z,1.50
2023-04-15T04:22:13.144Z,1.50
2023-04-15T04:27:06.377Z,1.60
2023-04-15T04:31:59.716Z,1.60
2023-04-15T04:34:26.719Z,1.40
2023-04-15T04:36:53.325Z,1.60
2023-04-15T04:41:46.772Z,1.70
2023-04-15T04:46:39.953Z,1.60
2023-04-15T04:49:07.042Z,1.50
2023-04-15T04:51:33.753Z,1.60
2023-04-15T04:56:30.452Z,1.80
2023-04-15T04:58:57.173Z,1.90
2023-04-15T05:01:23.834Z,1.90
2023-04-15T05:06:17.324Z,1.80
2023-04-15T05:11:10.439Z,1.90
2023-04-15T05:13:38.847Z,1.80
2023-04-15T05:16:06.448Z,1.80
2023-04-15T05:18:33.588Z,1.90
2023-04-15T05:21:00.426Z,1.70
2023-04-15T05:23:27.454Z,1.70
2023-04-15T05:25:54.177Z,1.90
2023-04-15T05:28:21.282Z,2.10
2023-04-15T05:30:47.923Z,2.20
2023-04-15T05:35:41.496Z,1.90
2023-04-15T05:38:08.340Z,2.40
2023-04-15T05:40:34.978Z,2.70
2023-04-15T05:45:28.357Z,1.90
2023-04-15T05:47:55.004Z,1.90
2023-04-15T05:50:21.784Z,1.80
2023-04-15T05:52:48.438Z,2.30
2023-04-15T05:57:41.660Z,1.70
2023-04-15T06:02:38.249Z,1.90
2023-04-15T06:05:09.944Z,1.90
2023-04-15T06:07:37.980Z,2.30
2023-04-15T06:10:05.954Z,2.10
2023-04-15T06:12:32.942Z,2.50
2023-04-15T06:15:00.384Z,2.30
2023-04-15T06:17:27.619Z,2.20
2023-04-15T06:19:55.861Z,2.30
2023-04-15T06:22:23.358Z,2.30
2023-04-15T06:24:51.364Z,2.20
2023-04-15T06:27:18.031Z,2.60
2023-04-15T06:29:44.921Z,2.40
2023-04-15T06:32:12.432Z,2.80
2023-04-15T06:34:39.120Z,2.40
2023-04-15T06:37:06.491Z,2.40
2023-04-15T06:39:33.309Z,2.20
2023-04-15T06:42:00.008Z,2.50
2023-04-15T06:44:26.751Z,2.00
2023-04-15T06:46:53.464Z,2.20
2023-04-15T06:49:20.059Z,2.50
2023-04-15T06:51:46.692Z,2.90
2023-04-15T06:54:13.439Z,1.70
2023-04-15T06:56:40.128Z,2.30
2023-04-15T06:59:06.762Z,2.20
2023-04-15T07:01:33.553Z,2.50
2023-04-15T07:04:00.620Z,2.20
2023-04-15T07:06:27.781Z,2.30
2023-04-15T07:08:55.765Z,2.10
2023-04-15T07:11:22.708Z,2.50
2023-04-15T07:13:49.352Z,2.30
2023-04-15T07:16:16.143Z,2.60
2023-04-15T07:18:43.576Z,2.70
2023-04-15T07:21:10.323Z,2.20
2023-04-15T07:23:36.970Z,2.10
2023-04-15T07:26:04.337Z,1.70
2023-04-15T07:28:31.093Z,1.60
2023-04-15T07:30:57.820Z,1.30
2023-04-15T07:33:24.468Z,1.80
2023-04-15T07:35:51.189Z,1.50
2023-04-15T07:38:17.955Z,1.70
2023-04-15T07:40:44.706Z,1.50
2023-04-15T07:43:11.456Z,1.40
2023-04-15T07:45:38.270Z,1.60
2023-04-15T07:48:06.828Z,1.60
2023-04-15T07:50:33.527Z,1.60
2023-04-15T07:53:00.330Z,1.30
2023-04-15T07:55:28.225Z,1.60
2023-04-15T07:57:55.329Z,1.80
2023-04-15T08:00:22.341Z,1.50
2023-04-15T08:02:50.091Z,1.70
2023-04-15T08:05:17.157Z,2.00
2023-04-15T08:07:43.904Z,1.50
2023-04-15T08:10:10.924Z,1.50
2023-04-15T08:12:37.959Z,1.50
2023-04-15T08:15:05.485Z,1.80
2023-04-15T08:17:32.240Z,1.60
2023-04-15T08:19:59.149Z,1.50
2023-04-15T08:22:25.915Z,1.40
2023-04-15T08:24:52.553Z,1.70
2023-04-15T08:27:19.379Z,1.90
2023-04-15T08:29:46.089Z,1.70
2023-04-15T08:32:12.811Z,1.70
2023-04-15T08:34:39.614Z,1.70
2023-04-15T08:37:07.308Z,1.50
2023-04-15T08:39:33.887Z,1.50
2023-04-15T08:42:02.751Z,1.90
2023-04-15T08:44:33.527Z,1.60
2023-04-15T08:47:04.052Z,1.90
2023-04-15T08:49:32.624Z,1.90
2023-04-15T08:52:00.588Z,2.10
2023-04-15T08:54:28.243Z,2.00
2023-04-15T08:56:55.043Z,2.40
2023-04-15T08:59:22.229Z,2.10
2023-04-15T09:01:53.549Z,2.40
2023-04-15T09:04:20.781Z,2.10
2023-04-15T09:06:47.624Z,2.20
2023-04-15T09:09:14.725Z,2.40
2023-04-15T09:11:43.080Z,2.70
2023-04-15T09:14:09.713Z,2.40
2023-04-15T09:17:00.982Z,2.30
2023-04-15T09:19:28.863Z,2.30
2023-04-15T09:21:59.064Z,2.30
2023-04-15T09:24:33.785Z,2.20
2023-04-15T09:27:00.606Z,3.30
2023-04-15T09:29:27.207Z,2.20
2023-04-15T09:31:53.962Z,2.20
2023-04-15T09:34:21.564Z,2.60
2023-04-15T09:36:50.411Z,2.30
2023-04-15T09:39:17.862Z,2.50
2023-04-15T09:41:45.289Z,2.40
2023-04-15T09:44:25.601Z,2.40
2023-04-15T09:46:52.236Z,2.30
2023-04-15T09:49:19.643Z,2.30
2023-04-15T09:52:01.493Z,2.40
2023-04-15T09:54:37.156Z,2.10
2023-04-15T09:59:34.542Z,2.20
2023-04-15T10:02:04.147Z,2.40
2023-04-15T10:04:35.209Z,2.30
2023-04-15T10:07:05.290Z,2.40
2023-04-15T10:09:33.701Z,2.20
2023-04-15T10:12:01.302Z,2.40
2023-04-15T10:14:32.933Z,2.40
2023-04-15T10:17:02.346Z,2.90
2023-04-15T10:19:33.258Z,2.30
2023-04-15T10:22:00.630Z,2.20
2023-04-15T10:24:28.015Z,2.20
2023-04-15T10:26:55.579Z,2.10
2023-04-15T10:29:25.760Z,1.90
2023-04-15T10:31:54.820Z,2.30
2023-04-15T10:34:23.025Z,2.10
2023-04-15T10:36:50.272Z,2.10
2023-04-15T10:39:40.008Z,2.40
2023-04-15T10:42:09.385Z,2.50
2023-04-15T10:44:38.387Z,2.10
2023-04-15T10:47:11.433Z,2.40
2023-04-15T10:49:59.240Z,2.80
2023-04-15T10:52:28.477Z,2.30
2023-04-15T10:55:15.981Z,2.90
2023-04-15T10:57:44.516Z,2.60
2023-04-15T11:00:16.532Z,2.20
2023-04-15T11:02:43.303Z,2.90
2023-04-15T11:05:14.640Z,2.40
2023-04-15T11:07:44.272Z,3.00
2023-04-15T11:10:13.826Z,2.80
2023-04-15T11:12:42.116Z,2.60
2023-04-15T11:15:34.851Z,2.60
2023-04-15T11:18:25.143Z,2.50
2023-04-15T11:23:27.704Z,2.80
2023-04-15T11:25:59.426Z,2.40
2023-04-15T11:28:30.591Z,2.40
2023-04-15T11:30:58.660Z,2.70
2023-04-15T11:33:26.006Z,3.30
2023-04-15T11:35:56.503Z,2.70
2023-04-15T11:38:23.119Z,2.60
2023-04-15T11:40:51.987Z,2.60
2023-04-15T11:43:23.015Z,2.10
2023-04-15T11:46:01.063Z,2.50
2023-04-15T11:51:04.344Z,2.10
2023-04-15T11:53:38.581Z,2.00
2023-04-15T11:56:06.331Z,2.10
2023-04-15T11:58:37.571Z,2.30
2023-04-15T12:01:06.104Z,1.90
2023-04-15T12:03:42.587Z,2.20
2023-04-15T12:06:24.724Z,2.00
2023-04-15T12:09:06.501Z,2.10
2023-04-15T12:11:49.047Z,2.00
2023-04-15T12:14:15.650Z,2.70
2023-04-15T12:16:51.775Z,2.10
2023-04-15T12:19:26.120Z,1.70
2023-04-15T12:21:58.905Z,1.90
2023-04-15T12:24:27.130Z,2.00
2023-04-15T12:26:57.363Z,1.70
2023-04-15T12:29:29.150Z,1.80
2023-04-15T12:32:06.095Z,2.10
2023-04-15T12:34:34.926Z,2.50
2023-04-15T12:37:04.040Z,2.60
2023-04-15T12:39:35.014Z,2.00
2023-04-15T12:42:01.823Z,2.00
2023-04-15T12:44:28.759Z,1.80
2023-04-15T12:46:55.958Z,1.70
2023-04-15T12:49:24.564Z,1.80
2023-04-15T12:51:53.372Z,2.00
2023-04-15T12:54:20.623Z,2.20
2023-04-15T12:56:49.900Z,2.40
2023-04-15T12:59:18.768Z,2.50
2023-04-15T13:01:47.564Z,2.20
2023-04-15T13:04:15.503Z,2.20
2023-04-15T13:06:43.040Z,1.90
2023-04-15T13:09:09.875Z,2.20
2023-04-15T13:11:36.750Z,2.00
2023-04-15T13:14:08.429Z,2.30
2023-04-15T13:16:35.341Z,1.90
2023-04-15T13:19:04.166Z,2.30
2023-04-15T13:21:35.234Z,3.00
2023-04-15T13:24:04.050Z,2.30
2023-04-15T13:26:31.831Z,2.20
2023-04-15T13:28:59.255Z,2.60
2023-04-15T13:31:26.468Z,3.00
2023-04-15T13:33:53.365Z,2.70
2023-04-15T13:36:20.077Z,2.30
2023-04-15T13:38:48.046Z,2.10
2023-04-15T13:41:16.491Z,1.80
2023-04-15T13:43:43.473Z,2.10
2023-04-15T13:46:10.583Z,1.90
2023-04-15T13:48:37.331Z,2.10
2023-04-15T13:51:04.119Z,2.20
2023-04-15T13:53:38.441Z,1.70
2023-04-15T13:56:10.041Z,1.70
2023-04-15T13:58:38.434Z,2.00
2023-04-15T14:01:07.123Z,2.00
2023-04-15T14:03:37.491Z,1.70
2023-04-15T14:06:05.757Z,1.60
2023-04-15T14:08:33.162Z,1.80
2023-04-15T14:10:59.880Z,1.70
2023-04-15T14:13:26.551Z,1.70
2023-04-15T14:15:53.270Z,1.80
2023-04-15T14:18:20.249Z,1.70
2023-04-15T14:20:46.908Z,1.60
2023-04-15T14:23:13.566Z,1.60
2023-04-15T14:25:40.493Z,1.90
2023-04-15T14:28:07.594Z,1.60
2023-04-15T14:30:34.349Z,1.50
2023-04-15T14:33:01.215Z,1.30
2023-04-15T14:35:28.123Z,1.40
2023-04-15T14:37:55.732Z,1.40
2023-04-15T14:40:22.738Z,1.30
2023-04-15T14:42:49.446Z,1.20
2023-04-15T14:45:16.395Z,1.40
2023-04-15T14:47:43.499Z,1.40
2023-04-15T14:50:10.531Z,1.40
2023-04-15T14:52:40.156Z,1.30
2023-04-15T14:55:11.626Z,1.60
2023-04-15T14:57:39.591Z,1.40
2023-04-15T15:00:07.878Z,1.70
2023-04-15T15:05:04.913Z,1.60
2023-04-15T15:07:31.835Z,1.50
2023-04-15T15:09:59.891Z,1.50
2023-04-15T15:12:26.638Z,1.30
2023-04-15T15:14:54.952Z,1.40
2023-04-15T15:17:22.250Z,1.20
2023-04-15T15:19:49.087Z,1.20
2023-04-15T15:22:15.738Z,1.10
2023-04-15T15:24:42.539Z,0.90
2023-04-15T15:27:10.509Z,0.70
2023-04-15T15:29:37.957Z,0.80
2023-04-15T15:32:04.766Z,0.90
2023-04-15T15:34:31.422Z,0.80
2023-04-15T15:36:58.090Z,0.80
2023-04-15T15:39:24.810Z,0.70
2023-04-15T15:41:51.567Z,1.30
2023-04-15T15:44:18.232Z,0.90
2023-04-15T15:46:45.081Z,1.30
2023-04-15T15:49:12.701Z,1.20
2023-04-15T15:51:39.333Z,1.20
2023-04-15T15:54:06.065Z,1.10
2023-04-15T15:56:33.269Z,1.20
2023-04-15T15:58:59.966Z,1.20
2023-04-15T16:01:26.720Z,1.10
2023-04-15T16:03:54.021Z,1.00
2023-04-15T16:06:23.864Z,1.30
2023-04-15T16:08:50.538Z,1.30
2023-04-15T16:11:17.341Z,1.10
2023-04-15T16:13:43.989Z,0.60
2023-04-15T16:16:10.771Z,0.80
2023-04-15T16:18:37.427Z,0.90
2023-04-15T16:21:04.187Z,1.00
2023-04-15T16:23:31.067Z,0.90
2023-04-15T16:25:58.094Z,1.10
2023-04-15T16:28:27.099Z,1.10
2023-04-15T16:30:55.128Z,0.80
2023-04-15T16:33:21.857Z,1.90
2023-04-15T16:35:48.559Z,1.90
2023-04-15T16:38:15.701Z,1.50
2023-04-15T16:40:42.653Z,2.00
2023-04-15T16:43:11.391Z,2.60
2023-04-15T16:45:38.878Z,2.70
2023-04-15T16:48:05.885Z,2.40
2023-04-15T16:50:32.888Z,2.40
2023-04-15T16:52:59.516Z,1.90
2023-04-15T16:55:26.872Z,2.20
2023-04-15T16:58:00.537Z,2.20
2023-04-15T17:00:35.976Z,2.50
2023-04-15T17:05:31.224Z,1.90
2023-04-15T17:07:58.443Z,1.70
2023-04-15T17:10:25.218Z,1.60
2023-04-15T17:12:52.844Z,2.10
2023-04-15T17:15:20.398Z,1.70
2023-04-15T17:17:47.143Z,1.90
2023-04-15T17:20:13.865Z,1.60
2023-04-15T17:22:40.745Z,2.30
2023-04-15T17:25:07.859Z,1.90
2023-04-15T17:27:34.460Z,2.30
2023-04-15T17:30:01.472Z,2.30
2023-04-15T17:32:34.575Z,2.20
2023-04-15T17:35:05.594Z,1.90
2023-04-15T17:37:36.169Z,1.90
2023-04-15T17:40:03.468Z,2.10
2023-04-15T17:42:30.424Z,2.50
2023-04-15T17:44:57.120Z,2.50
2023-04-15T17:47:23.833Z,2.90
2023-04-15T17:49:50.522Z,3.30
2023-04-15T17:52:17.266Z,2.50
2023-04-15T17:54:45.638Z,1.90
2023-04-15T17:57:12.335Z,2.30
2023-04-15T17:59:43.941Z,1.60
2023-04-15T18:02:11.817Z,2.90
2023-04-15T18:04:39.637Z,4.90
2023-04-15T18:07:07.221Z,2.40
2023-04-15T18:09:34.079Z,1.70
2023-04-15T18:12:02.204Z,3.10
2023-04-15T18:14:34.616Z,6.30
2023-04-15T18:17:02.747Z,7.90
2023-04-15T18:19:30.881Z,4.30
2023-04-15T18:22:00.406Z,4.10
2023-04-15T18:26:54.575Z,1.90
2023-04-15T18:29:21.255Z,2.10
2023-04-15T18:31:48.041Z,2.00
2023-04-15T18:34:14.720Z,1.70
2023-04-15T18:36:41.598Z,1.90
2023-04-15T18:39:08.534Z,1.90
2023-04-15T18:41:35.311Z,1.70
2023-04-15T18:44:01.950Z,2.10
2023-04-15T18:46:29.067Z,2.50
2023-04-15T18:48:55.885Z,2.30
2023-04-15T18:51:22.535Z,1.80
2023-04-15T18:53:49.184Z,1.80
2023-04-15T18:56:16.155Z,1.60
2023-04-15T18:59:09.825Z,1.50
2023-04-15T19:01:32.179Z,1.60
2023-04-15T19:03:59.444Z,0.90
2023-04-15T19:06:27.256Z,1.20
2023-04-15T19:08:55.037Z,1.20
2023-04-15T19:11:21.880Z,1.40
2023-04-15T19:13:48.701Z,3.00
2023-04-15T19:16:15.370Z,2.00
2023-04-15T19:18:42.133Z,1.30
2023-04-15T19:21:08.837Z,1.00
2023-04-15T19:23:35.707Z,1.40
2023-04-15T19:26:02.650Z,1.00
2023-04-15T19:28:30.147Z,1.20
2023-04-15T19:30:58.032Z,2.30
2023-04-15T19:33:27.412Z,4.80
2023-04-15T19:35:54.149Z,1.80
2023-04-15T19:38:20.819Z,1.10
2023-04-15T19:40:47.531Z,1.00
2023-04-15T19:43:14.148Z,1.30
2023-04-15T19:45:40.828Z,1.30
2023-04-15T19:48:07.636Z,1.40
2023-04-15T19:50:34.334Z,1.30
2023-04-15T19:53:01.194Z,1.20
2023-04-15T19:55:27.929Z,1.10
2023-04-15T19:57:54.655Z,1.10
2023-04-15T20:00:21.584Z,1.10
2023-04-15T20:02:48.410Z,1.60
2023-04-15T20:05:15.478Z,1.30
2023-04-15T20:07:43.166Z,1.40
2023-04-15T20:10:13.087Z,1.00
2023-04-15T20:12:50.192Z,1.00
2023-04-15T20:15:19.708Z,1.40
2023-04-15T20:17:46.574Z,1.00
2023-04-15T20:20:13.486Z,1.30
2023-04-15T20:22:40.262Z,1.30
2023-04-15T20:25:07.614Z,1.10
2023-04-15T20:27:34.316Z,0.90
2023-04-15T20:30:01.308Z,1.10
2023-04-15T20:32:28.481Z,0.90
2023-04-15T20:34:55.349Z,0.90
2023-04-15T20:37:22.520Z,0.90
2023-04-15T20:39:49.308Z,1.00
2023-04-15T20:42:16.222Z,1.20
2023-04-15T20:44:42.968Z,1.00
2023-04-15T20:47:10.013Z,0.60
2023-04-15T20:49:38.368Z,1.00
2023-04-15T20:52:07.153Z,0.90
2023-04-15T20:54:34.246Z,0.90
2023-04-15T20:57:01.916Z,1.00
2023-04-15T20:59:28.733Z,0.90
2023-04-15T21:01:57.248Z,1.10
2023-04-15T21:04:24.631Z,1.30
2023-04-15T21:06:52.351Z,0.80
2023-04-15T21:09:19.160Z,1.20
2023-04-15T21:12:00.398Z,0.90
2023-04-15T21:14:28.999Z,1.00
2023-04-15T21:16:58.139Z,1.10
2023-04-15T21:19:24.893Z,1.00
2023-04-15T21:21:51.584Z,1.10
2023-04-15T21:24:18.184Z,1.00
2023-04-15T21:26:44.820Z,1.00
2023-04-15T21:29:12.154Z,1.00
2023-04-15T21:31:39.930Z,1.30
2023-04-15T21:34:06.562Z,0.80
2023-04-15T21:36:33.961Z,0.90
2023-04-15T21:39:01.099Z,0.80
2023-04-15T21:41:46.982Z,1.00
2023-04-15T21:44:14.971Z,0.90
2023-04-15T21:46:46.120Z,0.90
2023-04-15T21:49:13.769Z,0.90
2023-04-15T21:51:40.352Z,1.20
2023-04-15T21:54:06.987Z,0.90
2023-04-15T21:56:33.655Z,0.90
2023-04-15T21:59:00.392Z,0.90
2023-04-15T22:01:27.187Z,1.00
2023-04-15T22:03:54.188Z,1.00
2023-04-15T22:06:21.647Z,0.80
2023-04-15T22:08:56.657Z,1.20
2023-04-15T22:11:30.480Z,0.70
2023-04-15T22:13:57.979Z,1.20
2023-04-15T22:16:28.441Z,0.80
2023-04-15T22:18:55.920Z,0.90
2023-04-15T22:21:23.395Z,1.10
2023-04-15T22:23:51.132Z,1.80
2023-04-15T22:26:17.835Z,0.80
2023-04-15T22:28:44.508Z,0.90
2023-04-15T22:31:11.471Z,1.10
2023-04-15T22:33:39.054Z,1.10
2023-04-15T22:36:06.289Z,0.80
2023-04-15T22:38:33.351Z,0.80
2023-04-15T22:41:00.072Z,1.10
2023-04-15T22:43:27.784Z,0.90
2023-04-15T22:45:55.143Z,1.10
2023-04-15T22:48:22.924Z,1.20
2023-04-15T22:50:49.987Z,1.20
2023-04-15T22:53:20.171Z,1.10
2023-04-15T22:55:48.316Z,1.00
2023-04-15T22:58:15.932Z,0.70
2023-04-15T23:00:42.728Z,1.00
2023-04-15T23:03:09.960Z,1.00
2023-04-15T23:05:37.060Z,1.10
2023-04-15T23:08:03.706Z,1.00
2023-04-15T23:10:30.421Z,1.00
2023-04-15T23:12:57.104Z,0.90
2023-04-15T23:15:23.942Z,1.10
2023-04-15T23:17:50.829Z,1.30
2023-04-15T23:20:17.651Z,1.10
2023-04-15T23:22:44.410Z,1.30
2023-04-15T23:25:11.014Z,1.40
2023-04-15T23:27:37.714Z,1.10
2023-04-15T23:30:04.819Z,1.30
2023-04-15T23:32:31.490Z,1.00
2023-04-15T23:34:58.261Z,1.10
2023-04-15T23:37:24.870Z,0.90
2023-04-15T23:39:51.652Z,1.00
2023-04-15T23:42:18.309Z,1.30
2023-04-15T23:44:44.978Z,1.20
2023-04-15T23:47:11.594Z,1.10
2023-04-15T23:49:40.980Z,1.20
2023-04-15T23:52:08.044Z,0.90
2023-04-15T23:54:35.347Z,1.30
2023-04-15T23:57:03.615Z,1.40
2023-04-15T23:59:30.269Z,1.10
